Beijing, Beijing

3:25 PM CST on September 03, 2014 (GMT +0800)
Beijing Capital | Change Station
CLOSE
Current Station
Airport
Location: Beijing,
Elevation: 115 ft
Nearby Weather Stations

Elev 115 ft 40.07 °N, 116.59 °E | Updated 25 minutes ago

Clear
Clear
88 °F
Feels Like 88 °F
N
2
Wind Variable Wind from Variable

Today
High -- | Low -- °F
--% Chance of Precip.
Yesterday
High -- | Low -- °F
Precip. -- in
5:42 AM 6:42 PM
First Quarter, 59% visible
Pressure 29.74 in
Visibility -9999.0 miles
Clouds
Dew Point 50 °F
Humidity 27%
Rainfall 0.00 in
Snow Depth Not available.
UV Not available.
Pollen Not available.
Air Quality Not available.
Flu Activity Not available.
METAR ZBAA 030700Z VRB01MPS CAVOK 31/10 Q1007 NOSIG

More Conditions Fewer Conditions

Pressure 29.74 in
Visibility -9999.0 miles
Clouds
Dew Point 50 °F
Humidity 27%
Rainfall 0.00 in
Snow Depth Not available.
UV Not available.
Pollen Not available.
Air Quality Not available.
Flu Activity Not available.
METAR ZBAA 030700Z VRB01MPS CAVOK 31/10 Q1007 NOSIG

More Conditions Fewer Conditions

10-Day Weather Forecast

Almanac

Astronomy

Sep. 03, 2014 Rise Set
Actual Time 5:42 AM CST 6:42 PM CST
Civil Twilight 5:14 AM CST 7:10 PM CST
Nautical Twilight 4:41 AM CST 7:43 PM CST
Astronomical Twilight 4:07 AM CST 8:17 PM CST
Moon 1:51 PM CST No Moon Set
Length of Visible Light 13h 55m
Length of Day
13h 00m
Tomorrow will be 2m 33s shorter.
First Quarter, 59% of the Moon is Illuminated
Today
First Quarter
Sep 8
Full
Sep 15
Last Quarter
Sep 24
New
Oct 1
First Quarter

Yesterday's Extremes

Country Highs Country Lows

Community

WunderPhotos

Upload Photos

1,749,891 photos uploaded!

Nearby

Snow Depth

Not available.

Earthquake Activity

City Distance Mag. Time & Date
No recent earthquake activity has been reported nearby.
Minimum magnitude displayed is 2.5.

Coastal Water Temperatures

Place Temperature
No Stations Reporting

Nearby Weather Stations